sensor_id;sensor_type;location;lat;lon;timestamp;temperature;humidity
74376;HTU21D;62812;55.188;61.302;2022-09-21T00:00:45;14.63;43.29
74376;HTU21D;62812;55.188;61.302;2022-09-21T00:03:13;14.60;42.32
74376;HTU21D;62812;55.188;61.302;2022-09-21T00:05:40;14.56;41.94
74376;HTU21D;62812;55.188;61.302;2022-09-21T00:08:07;14.53;42.28
74376;HTU21D;62812;55.188;61.302;2022-09-21T00:10:34;14.50;42.77
74376;HTU21D;62812;55.188;61.302;2022-09-21T00:13:00;14.48;43.49
74376;HTU21D;62812;55.188;61.302;2022-09-21T00:15:30;14.45;43.59
74376;HTU21D;62812;55.188;61.302;2022-09-21T00:17:58;14.44;43.37
74376;HTU21D;62812;55.188;61.302;2022-09-21T00:20:26;14.42;43.96
74376;HTU21D;62812;55.188;61.302;2022-09-21T00:22:53;14.50;46.44
74376;HTU21D;62812;55.188;61.302;2022-09-21T00:25:20;14.53;40.09
74376;HTU21D;62812;55.188;61.302;2022-09-21T00:27:46;14.49;41.58
74376;HTU21D;62812;55.188;61.302;2022-09-21T00:30:16;14.47;39.87
74376;HTU21D;62812;55.188;61.302;2022-09-21T00:32:43;14.44;38.51
74376;HTU21D;62812;55.188;61.302;2022-09-21T00:35:11;14.41;40.08
74376;HTU21D;62812;55.188;61.302;2022-09-21T00:37:37;14.40;38.46
74376;HTU21D;62812;55.188;61.302;2022-09-21T00:40:04;14.40;38.43
74376;HTU21D;62812;55.188;61.302;2022-09-21T00:42:33;14.38;39.50
74376;HTU21D;62812;55.188;61.302;2022-09-21T00:45:00;14.33;37.80
74376;HTU21D;62812;55.188;61.302;2022-09-21T00:47:30;14.32;38.01
74376;HTU21D;62812;55.188;61.302;2022-09-21T00:49:59;14.32;38.54
74376;HTU21D;62812;55.188;61.302;2022-09-21T00:52:32;14.27;39.37
74376;HTU21D;62812;55.188;61.302;2022-09-21T00:55:03;14.28;40.29
74376;HTU21D;62812;55.188;61.302;2022-09-21T00:57:31;14.27;40.02
74376;HTU21D;62812;55.188;61.302;2022-09-21T01:00:04;14.27;39.48
74376;HTU21D;62812;55.188;61.302;2022-09-21T01:02:32;14.22;40.63
74376;HTU21D;62812;55.188;61.302;2022-09-21T01:05:00;14.18;39.72
74376;HTU21D;62812;55.188;61.302;2022-09-21T01:07:33;14.15;40.13
74376;HTU21D;62812;55.188;61.302;2022-09-21T01:10:03;14.13;40.94
74376;HTU21D;62812;55.188;61.302;2022-09-21T01:15:28;14.11;40.62
74376;HTU21D;62812;55.188;61.302;2022-09-21T01:18:04;14.10;40.46
74376;HTU21D;62812;55.188;61.302;2022-09-21T01:24:15;14.14;39.46
74376;HTU21D;62812;55.188;61.302;2022-09-21T01:27:10;14.15;39.07
74376;HTU21D;62812;55.188;61.302;2022-09-21T01:29:52;14.18;39.69
74376;HTU21D;62812;55.188;61.302;2022-09-21T01:32:22;14.19;41.55
74376;HTU21D;62812;55.188;61.302;2022-09-21T01:34:53;14.13;42.51
74376;HTU21D;62812;55.188;61.302;2022-09-21T01:37:24;14.11;42.10
74376;HTU21D;62812;55.188;61.302;2022-09-21T01:40:01;14.09;43.35
74376;HTU21D;62812;55.188;61.302;2022-09-21T01:42:30;14.08;44.32
74376;HTU21D;62812;55.188;61.302;2022-09-21T01:45:01;14.04;43.61
74376;HTU21D;62812;55.188;61.302;2022-09-21T01:47:29;14.03;44.88
74376;HTU21D;62812;55.188;61.302;2022-09-21T01:49:59;14.01;44.29
74376;HTU21D;62812;55.188;61.302;2022-09-21T01:52:32;14.08;44.43
74376;HTU21D;62812;55.188;61.302;2022-09-21T01:55:03;14.12;45.45
74376;HTU21D;62812;55.188;61.302;2022-09-21T01:57:35;14.21;44.61
74376;HTU21D;62812;55.188;61.302;2022-09-21T02:00:06;14.28;44.87
74376;HTU21D;62812;55.188;61.302;2022-09-21T02:02:34;14.40;44.32
74376;HTU21D;62812;55.188;61.302;2022-09-21T02:05:02;14.63;43.98
74376;HTU21D;62812;55.188;61.302;2022-09-21T02:07:30;14.81;44.64
74376;HTU21D;62812;55.188;61.302;2022-09-21T02:09:57;14.98;45.19
74376;HTU21D;62812;55.188;61.302;2022-09-21T02:12:25;15.22;43.05
74376;HTU21D;62812;55.188;61.302;2022-09-21T02:14:53;15.53;41.55
74376;HTU21D;62812;55.188;61.302;2022-09-21T02:17:32;15.73;41.37
74376;HTU21D;62812;55.188;61.302;2022-09-21T02:20:07;15.91;39.82
74376;HTU21D;62812;55.188;61.302;2022-09-21T02:22:43;16.11;36.61
74376;HTU21D;62812;55.188;61.302;2022-09-21T02:25:14;16.19;37.60
74376;HTU21D;62812;55.188;61.302;2022-09-21T02:27:46;16.27;37.45
74376;HTU21D;62812;55.188;61.302;2022-09-21T02:30:16;16.44;36.88
74376;HTU21D;62812;55.188;61.302;2022-09-21T02:32:49;16.47;38.49
74376;HTU21D;62812;55.188;61.302;2022-09-21T02:35:30;16.55;38.73
74376;HTU21D;62812;55.188;61.302;2022-09-21T02:38:02;16.61;37.54
74376;HTU21D;62812;55.188;61.302;2022-09-21T02:40:35;16.90;37.82
74376;HTU21D;62812;55.188;61.302;2022-09-21T02:43:08;17.21;38.31
74376;HTU21D;62812;55.188;61.302;2022-09-21T02:45:41;17.62;35.29
74376;HTU21D;62812;55.188;61.302;2022-09-21T02:48:14;17.79;34.94
74376;HTU21D;62812;55.188;61.302;2022-09-21T02:50:44;17.83;34.57
74376;HTU21D;62812;55.188;61.302;2022-09-21T02:53:14;17.89;35.98
74376;HTU21D;62812;55.188;61.302;2022-09-21T02:55:43;18.06;34.25
74376;HTU21D;62812;55.188;61.302;2022-09-21T02:58:16;18.15;34.50
74376;HTU21D;62812;55.188;61.302;2022-09-21T03:00:43;18.25;35.30
74376;HTU21D;62812;55.188;61.302;2022-09-21T03:03:16;18.39;35.69
74376;HTU21D;62812;55.188;61.302;2022-09-21T03:05:44;18.41;35.44
74376;HTU21D;62812;55.188;61.302;2022-09-21T03:08:19;18.43;34.74
74376;HTU21D;62812;55.188;61.302;2022-09-21T03:10:46;18.47;35.69
74376;HTU21D;62812;55.188;61.302;2022-09-21T03:13:14;18.49;36.30
74376;HTU21D;62812;55.188;61.302;2022-09-21T03:15:41;18.52;36.21
74376;HTU21D;62812;55.188;61.302;2022-09-21T03:18:40;18.61;35.65
74376;HTU21D;62812;55.188;61.302;2022-09-21T03:21:13;18.73;35.47
74376;HTU21D;62812;55.188;61.302;2022-09-21T03:23:43;18.97;35.66
74376;HTU21D;62812;55.188;61.302;2022-09-21T03:26:12;19.17;35.62
74376;HTU21D;62812;55.188;61.302;2022-09-21T03:28:45;19.39;36.40
74376;HTU21D;62812;55.188;61.302;2022-09-21T03:31:12;19.61;34.58
74376;HTU21D;62812;55.188;61.302;2022-09-21T03:33:42;19.88;34.05
74376;HTU21D;62812;55.188;61.302;2022-09-21T03:36:09;20.10;35.55
74376;HTU21D;62812;55.188;61.302;2022-09-21T03:38:36;20.25;34.94
74376;HTU21D;62812;55.188;61.302;2022-09-21T03:41:15;20.36;35.94
74376;HTU21D;62812;55.188;61.302;2022-09-21T03:43:42;20.45;33.14
74376;HTU21D;62812;55.188;61.302;2022-09-21T03:46:08;20.63;34.43
74376;HTU21D;62812;55.188;61.302;2022-09-21T03:48:35;20.80;34.73
74376;HTU21D;62812;55.188;61.302;2022-09-21T03:51:03;20.86;33.52
74376;HTU21D;62812;55.188;61.302;2022-09-21T03:53:30;21.03;34.02
74376;HTU21D;62812;55.188;61.302;2022-09-21T03:55:57;21.04;35.11
74376;HTU21D;62812;55.188;61.302;2022-09-21T03:58:25;21.23;35.28
74376;HTU21D;62812;55.188;61.302;2022-09-21T04:00:59;21.48;36.17
74376;HTU21D;62812;55.188;61.302;2022-09-21T04:03:27;21.57;36.42
74376;HTU21D;62812;55.188;61.302;2022-09-21T04:05:53;21.69;36.75
74376;HTU21D;62812;55.188;61.302;2022-09-21T04:08:21;21.84;37.18
74376;HTU21D;62812;55.188;61.302;2022-09-21T04:10:48;21.96;37.61
74376;HTU21D;62812;55.188;61.302;2022-09-21T04:13:15;21.93;37.71
74376;HTU21D;62812;55.188;61.302;2022-09-21T04:15:51;21.78;38.52
74376;HTU21D;62812;55.188;61.302;2022-09-21T04:18:21;21.68;38.88
74376;HTU21D;62812;55.188;61.302;2022-09-21T04:20:47;21.66;39.58
74376;HTU21D;62812;55.188;61.302;2022-09-21T04:23:21;21.72;39.74
74376;HTU21D;62812;55.188;61.302;2022-09-21T04:25:48;21.84;39.24
74376;HTU21D;62812;55.188;61.302;2022-09-21T04:28:18;21.94;38.80
74376;HTU21D;62812;55.188;61.302;2022-09-21T04:30:44;21.95;38.77
74376;HTU21D;62812;55.188;61.302;2022-09-21T04:33:11;21.85;39.52
74376;HTU21D;62812;55.188;61.302;2022-09-21T04:35:39;21.84;39.20
74376;HTU21D;62812;55.188;61.302;2022-09-21T04:38:06;21.84;39.56
74376;HTU21D;62812;55.188;61.302;2022-09-21T04:40:34;21.95;39.69
74376;HTU21D;62812;55.188;61.302;2022-09-21T04:43:01;21.96;39.70
74376;HTU21D;62812;55.188;61.302;2022-09-21T04:45:27;21.89;39.94
74376;HTU21D;62812;55.188;61.302;2022-09-21T04:47:54;21.93;40.11
74376;HTU21D;62812;55.188;61.302;2022-09-21T04:50:20;21.89;40.43
74376;HTU21D;62812;55.188;61.302;2022-09-21T04:52:47;21.87;40.45
74376;HTU21D;62812;55.188;61.302;2022-09-21T04:55:14;21.91;40.76
74376;HTU21D;62812;55.188;61.302;2022-09-21T04:57:45;21.95;40.49
74376;HTU21D;62812;55.188;61.302;2022-09-21T05:00:12;21.96;40.62
74376;HTU21D;62812;55.188;61.302;2022-09-21T05:02:40;21.97;41.41
74376;HTU21D;62812;55.188;61.302;2022-09-21T05:05:07;22.06;41.16
74376;HTU21D;62812;55.188;61.302;2022-09-21T05:07:34;22.16;40.84
74376;HTU21D;62812;55.188;61.302;2022-09-21T05:10:04;22.37;40.81
74376;HTU21D;62812;55.188;61.302;2022-09-21T05:12:32;22.46;41.85
74376;HTU21D;62812;55.188;61.302;2022-09-21T05:15:00;22.58;39.75
74376;HTU21D;62812;55.188;61.302;2022-09-21T05:17:27;22.70;40.81
74376;HTU21D;62812;55.188;61.302;2022-09-21T05:19:56;22.79;40.59
74376;HTU21D;62812;55.188;61.302;2022-09-21T05:22:29;22.84;39.34
74376;HTU21D;62812;55.188;61.302;2022-09-21T05:24:56;22.85;39.07
74376;HTU21D;62812;55.188;61.302;2022-09-21T05:27:23;22.86;38.70
74376;HTU21D;62812;55.188;61.302;2022-09-21T05:29:50;22.95;38.60
74376;HTU21D;62812;55.188;61.302;2022-09-21T05:32:23;23.01;39.25
74376;HTU21D;62812;55.188;61.302;2022-09-21T05:35:06;22.97;39.58
74376;HTU21D;62812;55.188;61.302;2022-09-21T05:37:42;23.02;39.31
74376;HTU21D;62812;55.188;61.302;2022-09-21T05:40:12;23.11;39.21
74376;HTU21D;62812;55.188;61.302;2022-09-21T05:42:39;23.09;40.17
74376;HTU21D;62812;55.188;61.302;2022-09-21T05:45:08;23.18;40.04
74376;HTU21D;62812;55.188;61.302;2022-09-21T05:47:38;23.27;39.27
74376;HTU21D;62812;55.188;61.302;2022-09-21T05:50:21;23.31;40.14
74376;HTU21D;62812;55.188;61.302;2022-09-21T05:52:55;23.36;39.73
74376;HTU21D;62812;55.188;61.302;2022-09-21T05:55:30;23.32;39.17
74376;HTU21D;62812;55.188;61.302;2022-09-21T05:58:07;23.25;39.83
74376;HTU21D;62812;55.188;61.302;2022-09-21T06:00:45;23.35;38.49
74376;HTU21D;62812;55.188;61.302;2022-09-21T06:03:26;23.45;39.67
74376;HTU21D;62812;55.188;61.302;2022-09-21T06:05:53;23.52;40.18
74376;HTU21D;62812;55.188;61.302;2022-09-21T06:08:20;23.42;39.66
74376;HTU21D;62812;55.188;61.302;2022-09-21T06:10:47;23.39;39.85
74376;HTU21D;62812;55.188;61.302;2022-09-21T06:13:14;23.45;38.90
74376;HTU21D;62812;55.188;61.302;2022-09-21T06:15:41;23.57;38.85
74376;HTU21D;62812;55.188;61.302;2022-09-21T06:18:11;23.66;39.18
74376;HTU21D;62812;55.188;61.302;2022-09-21T06:20:40;23.68;39.61
74376;HTU21D;62812;55.188;61.302;2022-09-21T06:23:09;23.56;39.49
74376;HTU21D;62812;55.188;61.302;2022-09-21T06:25:39;23.47;40.78
74376;HTU21D;62812;55.188;61.302;2022-09-21T06:28:12;23.45;40.76
74376;HTU21D;62812;55.188;61.302;2022-09-21T06:30:39;23.54;39.81
74376;HTU21D;62812;55.188;61.302;2022-09-21T06:33:15;23.59;40.17
74376;HTU21D;62812;55.188;61.302;2022-09-21T06:35:57;23.66;39.01
74376;HTU21D;62812;55.188;61.302;2022-09-21T06:38:27;23.71;40.04
74376;HTU21D;62812;55.188;61.302;2022-09-21T06:41:00;23.69;40.88
74376;HTU21D;62812;55.188;61.302;2022-09-21T06:43:28;23.71;40.94
74376;HTU21D;62812;55.188;61.302;2022-09-21T06:45:58;23.64;41.41
74376;HTU21D;62812;55.188;61.302;2022-09-21T06:48:32;23.69;40.54
74376;HTU21D;62812;55.188;61.302;2022-09-21T06:51:02;23.70;41.65
74376;HTU21D;62812;55.188;61.302;2022-09-21T06:53:34;23.76;41.56
74376;HTU21D;62812;55.188;61.302;2022-09-21T06:56:05;23.79;41.96
74376;HTU21D;62812;55.188;61.302;2022-09-21T06:58:37;23.86;42.29
74376;HTU21D;62812;55.188;61.302;2022-09-21T07:01:05;23.90;43.16
74376;HTU21D;62812;55.188;61.302;2022-09-21T07:03:32;23.89;43.29
74376;HTU21D;62812;55.188;61.302;2022-09-21T07:06:03;23.88;40.31
74376;HTU21D;62812;55.188;61.302;2022-09-21T07:08:30;23.95;43.04
74376;HTU21D;62812;55.188;61.302;2022-09-21T07:10:57;23.88;43.16
74376;HTU21D;62812;55.188;61.302;2022-09-21T07:13:24;23.88;43.45
74376;HTU21D;62812;55.188;61.302;2022-09-21T07:15:51;24.01;43.26
74376;HTU21D;62812;55.188;61.302;2022-09-21T07:18:21;24.06;42.90
74376;HTU21D;62812;55.188;61.302;2022-09-21T07:20:52;24.14;40.52
74376;HTU21D;62812;55.188;61.302;2022-09-21T07:23:20;24.11;43.32
74376;HTU21D;62812;55.188;61.302;2022-09-21T07:25:52;24.10;43.22
74376;HTU21D;62812;55.188;61.302;2022-09-21T07:28:19;24.13;40.33
74376;HTU21D;62812;55.188;61.302;2022-09-21T07:30:45;24.18;42.84
74376;HTU21D;62812;55.188;61.302;2022-09-21T07:33:15;24.12;42.64
74376;HTU21D;62812;55.188;61.302;2022-09-21T07:35:51;24.05;42.60
74376;HTU21D;62812;55.188;61.302;2022-09-21T07:38:20;24.09;41.10
74376;HTU21D;62812;55.188;61.302;2022-09-21T07:40:49;24.17;41.07
74376;HTU21D;62812;55.188;61.302;2022-09-21T07:43:21;24.25;41.84
74376;HTU21D;62812;55.188;61.302;2022-09-21T07:46:04;24.19;42.36
74376;HTU21D;62812;55.188;61.302;2022-09-21T07:48:36;24.14;42.42
74376;HTU21D;62812;55.188;61.302;2022-09-21T07:51:04;24.08;42.11
74376;HTU21D;62812;55.188;61.302;2022-09-21T07:53:33;24.05;42.19
74376;HTU21D;62812;55.188;61.302;2022-09-21T07:56:01;24.00;41.40
74376;HTU21D;62812;55.188;61.302;2022-09-21T07:58:34;24.06;41.00
74376;HTU21D;62812;55.188;61.302;2022-09-21T08:01:20;24.20;40.83
74376;HTU21D;62812;55.188;61.302;2022-09-21T08:03:48;24.29;41.45
74376;HTU21D;62812;55.188;61.302;2022-09-21T08:06:18;24.40;40.51
74376;HTU21D;62812;55.188;61.302;2022-09-21T08:08:52;24.46;41.45
74376;HTU21D;62812;55.188;61.302;2022-09-21T08:11:24;24.54;40.31
74376;HTU21D;62812;55.188;61.302;2022-09-21T08:13:56;24.59;40.23
74376;HTU21D;62812;55.188;61.302;2022-09-21T08:16:24;24.62;40.77
74376;HTU21D;62812;55.188;61.302;2022-09-21T08:18:51;24.57;40.04
74376;HTU21D;62812;55.188;61.302;2022-09-21T08:21:22;24.48;39.12
74376;HTU21D;62812;55.188;61.302;2022-09-21T08:23:55;24.45;38.70
74376;HTU21D;62812;55.188;61.302;2022-09-21T08:26:23;24.43;39.09
74376;HTU21D;62812;55.188;61.302;2022-09-21T08:28:52;24.49;39.43
74376;HTU21D;62812;55.188;61.302;2022-09-21T08:31:24;24.59;39.67
74376;HTU21D;62812;55.188;61.302;2022-09-21T08:33:54;24.64;39.37
74376;HTU21D;62812;55.188;61.302;2022-09-21T08:36:24;24.64;39.31
74376;HTU21D;62812;55.188;61.302;2022-09-21T08:38:57;24.65;39.53
74376;HTU21D;62812;55.188;61.302;2022-09-21T08:41:34;24.75;38.98
74376;HTU21D;62812;55.188;61.302;2022-09-21T08:44:12;24.78;37.59
74376;HTU21D;62812;55.188;61.302;2022-09-21T08:46:44;24.75;38.24
74376;HTU21D;62812;55.188;61.302;2022-09-21T08:49:24;24.82;37.39
74376;HTU21D;62812;55.188;61.302;2022-09-21T08:52:00;24.90;38.20
74376;HTU21D;62812;55.188;61.302;2022-09-21T08:54:34;24.92;38.19
74376;HTU21D;62812;55.188;61.302;2022-09-21T08:57:11;24.98;37.26
74376;HTU21D;62812;55.188;61.302;2022-09-21T08:59:40;25.03;36.37
74376;HTU21D;62812;55.188;61.302;2022-09-21T09:02:21;25.01;35.53
74376;HTU21D;62812;55.188;61.302;2022-09-21T09:05:05;25.04;35.65
74376;HTU21D;62812;55.188;61.302;2022-09-21T09:07:50;25.15;37.22
74376;HTU21D;62812;55.188;61.302;2022-09-21T09:10:35;25.23;35.27
74376;HTU21D;62812;55.188;61.302;2022-09-21T09:13:11;25.30;36.73
74376;HTU21D;62812;55.188;61.302;2022-09-21T09:15:51;25.40;34.76
74376;HTU21D;62812;55.188;61.302;2022-09-21T09:18:24;25.46;32.92
74376;HTU21D;62812;55.188;61.302;2022-09-21T09:21:00;25.49;34.48
74376;HTU21D;62812;55.188;61.302;2022-09-21T09:23:37;25.62;35.85
74376;HTU21D;62812;55.188;61.302;2022-09-21T09:26:16;25.72;34.89
74376;HTU21D;62812;55.188;61.302;2022-09-21T09:28:53;25.80;34.26
74376;HTU21D;62812;55.188;61.302;2022-09-21T09:31:24;25.92;32.86
74376;HTU21D;62812;55.188;61.302;2022-09-21T09:34:07;25.97;32.47
74376;HTU21D;62812;55.188;61.302;2022-09-21T09:36:35;25.99;34.37
74376;HTU21D;62812;55.188;61.302;2022-09-21T09:39:09;26.12;34.37
74376;HTU21D;62812;55.188;61.302;2022-09-21T09:41:53;26.22;33.83
74376;HTU21D;62812;55.188;61.302;2022-09-21T09:44:41;26.18;33.26
74376;HTU21D;62812;55.188;61.302;2022-09-21T09:47:25;26.19;31.86
74376;HTU21D;62812;55.188;61.302;2022-09-21T09:50:03;26.26;33.87
74376;HTU21D;62812;55.188;61.302;2022-09-21T09:52:34;26.31;33.48
74376;HTU21D;62812;55.188;61.302;2022-09-21T09:55:13;26.34;33.37
74376;HTU21D;62812;55.188;61.302;2022-09-21T09:57:45;26.38;33.55
74376;HTU21D;62812;55.188;61.302;2022-09-21T10:00:18;26.35;32.65
74376;HTU21D;62812;55.188;61.302;2022-09-21T10:02:51;26.34;32.34
74376;HTU21D;62812;55.188;61.302;2022-09-21T10:05:32;26.31;32.11
74376;HTU21D;62812;55.188;61.302;2022-09-21T10:08:07;26.28;31.37
74376;HTU21D;62812;55.188;61.302;2022-09-21T10:10:54;26.23;33.05
74376;HTU21D;62812;55.188;61.302;2022-09-21T10:13:26;26.19;29.84
74376;HTU21D;62812;55.188;61.302;2022-09-21T10:15:56;26.18;28.06
74376;HTU21D;62812;55.188;61.302;2022-09-21T10:18:28;26.17;27.69
74376;HTU21D;62812;55.188;61.302;2022-09-21T10:21:01;26.18;32.70
74376;HTU21D;62812;55.188;61.302;2022-09-21T10:23:29;26.15;31.06
74376;HTU21D;62812;55.188;61.302;2022-09-21T10:26:00;26.10;28.77
74376;HTU21D;62812;55.188;61.302;2022-09-21T10:28:32;26.05;27.65
74376;HTU21D;62812;55.188;61.302;2022-09-21T10:31:18;26.05;26.52
74376;HTU21D;62812;55.188;61.302;2022-09-21T10:33:51;26.01;27.74
74376;HTU21D;62812;55.188;61.302;2022-09-21T10:36:31;26.06;31.77
74376;HTU21D;62812;55.188;61.302;2022-09-21T10:39:22;26.10;31.90
74376;HTU21D;62812;55.188;61.302;2022-09-21T10:41:50;26.10;31.75
74376;HTU21D;62812;55.188;61.302;2022-09-21T10:44:24;26.03;28.87
74376;HTU21D;62812;55.188;61.302;2022-09-21T10:47:02;25.99;32.09
74376;HTU21D;62812;55.188;61.302;2022-09-21T10:49:31;25.97;31.66
74376;HTU21D;62812;55.188;61.302;2022-09-21T10:51:58;25.97;26.96
74376;HTU21D;62812;55.188;61.302;2022-09-21T10:54:28;25.97;26.46
74376;HTU21D;62812;55.188;61.302;2022-09-21T10:56:56;25.97;27.93
74376;HTU21D;62812;55.188;61.302;2022-09-21T10:59:30;25.90;29.42
74376;HTU21D;62812;55.188;61.302;2022-09-21T11:01:58;25.87;27.37
74376;HTU21D;62812;55.188;61.302;2022-09-21T11:04:37;25.88;27.07
74376;HTU21D;62812;55.188;61.302;2022-09-21T11:07:11;25.88;26.08
74376;HTU21D;62812;55.188;61.302;2022-09-21T11:09:45;25.84;30.88
74376;HTU21D;62812;55.188;61.302;2022-09-21T11:12:32;25.87;30.87
74376;HTU21D;62812;55.188;61.302;2022-09-21T11:15:15;25.87;27.54
74376;HTU21D;62812;55.188;61.302;2022-09-21T11:17:46;25.86;24.27
74376;HTU21D;62812;55.188;61.302;2022-09-21T11:20:24;25.86;28.55
74376;HTU21D;62812;55.188;61.302;2022-09-21T11:22:59;25.86;31.10
74376;HTU21D;62812;55.188;61.302;2022-09-21T11:25:35;25.79;29.61
74376;HTU21D;62812;55.188;61.302;2022-09-21T11:28:12;25.78;23.42
74376;HTU21D;62812;55.188;61.302;2022-09-21T11:31:00;25.76;28.48
74376;HTU21D;62812;55.188;61.302;2022-09-21T11:33:39;25.76;25.20
74376;HTU21D;62812;55.188;61.302;2022-09-21T11:36:16;25.71;27.56
74376;HTU21D;62812;55.188;61.302;2022-09-21T11:38:53;25.66;25.59
74376;HTU21D;62812;55.188;61.302;2022-09-21T11:41:51;25.63;23.27
74376;HTU21D;62812;55.188;61.302;2022-09-21T11:44:40;25.62;28.96
74376;HTU21D;62812;55.188;61.302;2022-09-21T11:47:20;25.59;28.48
74376;HTU21D;62812;55.188;61.302;2022-09-21T11:50:05;25.57;27.87
74376;HTU21D;62812;55.188;61.302;2022-09-21T11:52:41;25.56;29.13
74376;HTU21D;62812;55.188;61.302;2022-09-21T11:55:31;25.51;29.37
74376;HTU21D;62812;55.188;61.302;2022-09-21T11:58:07;25.51;27.14
74376;HTU21D;62812;55.188;61.302;2022-09-21T12:00:45;25.48;26.39
74376;HTU21D;62812;55.188;61.302;2022-09-21T12:03:50;25.44;26.49
74376;HTU21D;62812;55.188;61.302;2022-09-21T12:06:47;25.43;29.62
74376;HTU21D;62812;55.188;61.302;2022-09-21T12:09:45;25.38;27.61
74376;HTU21D;62812;55.188;61.302;2022-09-21T12:12:20;25.34;28.41
74376;HTU21D;62812;55.188;61.302;2022-09-21T12:14:59;25.32;30.74
74376;HTU21D;62812;55.188;61.302;2022-09-21T12:17:34;25.29;29.35
74376;HTU21D;62812;55.188;61.302;2022-09-21T12:20:20;25.24;25.87
74376;HTU21D;62812;55.188;61.302;2022-09-21T12:22:54;25.23;30.83
74376;HTU21D;62812;55.188;61.302;2022-09-21T12:25:26;25.23;29.65
74376;HTU21D;62812;55.188;61.302;2022-09-21T12:28:00;25.20;29.84
74376;HTU21D;62812;55.188;61.302;2022-09-21T12:30:28;25.21;30.86
74376;HTU21D;62812;55.188;61.302;2022-09-21T12:33:03;25.20;30.76
74376;HTU21D;62812;55.188;61.302;2022-09-21T12:35:48;25.17;30.71
74376;HTU21D;62812;55.188;61.302;2022-09-21T12:38:20;25.14;30.49
74376;HTU21D;62812;55.188;61.302;2022-09-21T12:41:02;25.13;30.13
74376;HTU21D;62812;55.188;61.302;2022-09-21T12:43:39;25.08;30.66
74376;HTU21D;62812;55.188;61.302;2022-09-21T12:46:22;25.04;30.39
74376;HTU21D;62812;55.188;61.302;2022-09-21T12:48:53;24.99;30.54
74376;HTU21D;62812;55.188;61.302;2022-09-21T12:51:24;24.95;31.67
74376;HTU21D;62812;55.188;61.302;2022-09-21T12:54:07;24.91;30.35
74376;HTU21D;62812;55.188;61.302;2022-09-21T12:57:51;24.86;31.62
74376;HTU21D;62812;55.188;61.302;2022-09-21T13:00:36;24.80;30.11
74376;HTU21D;62812;55.188;61.302;2022-09-21T13:03:13;24.75;32.25
74376;HTU21D;62812;55.188;61.302;2022-09-21T13:05:55;24.72;30.98
74376;HTU21D;62812;55.188;61.302;2022-09-21T13:08:31;24.66;31.77
74376;HTU21D;62812;55.188;61.302;2022-09-21T13:11:05;24.62;32.15
74376;HTU21D;62812;55.188;61.302;2022-09-21T13:13:35;24.57;31.83
74376;HTU21D;62812;55.188;61.302;2022-09-21T13:16:22;24.53;32.08
74376;HTU21D;62812;55.188;61.302;2022-09-21T13:19:01;24.49;32.89
74376;HTU21D;62812;55.188;61.302;2022-09-21T13:21:34;24.44;32.35
74376;HTU21D;62812;55.188;61.302;2022-09-21T13:24:04;24.39;29.32
74376;HTU21D;62812;55.188;61.302;2022-09-21T13:26:39;24.34;32.25
74376;HTU21D;62812;55.188;61.302;2022-09-21T13:29:34;24.29;31.99
74376;HTU21D;62812;55.188;61.302;2022-09-21T13:32:21;24.24;32.19
74376;HTU21D;62812;55.188;61.302;2022-09-21T13:34:51;24.20;31.86
74376;HTU21D;62812;55.188;61.302;2022-09-21T13:37:28;24.14;31.93
74376;HTU21D;62812;55.188;61.302;2022-09-21T13:43:15;24.00;33.00
74376;HTU21D;62812;55.188;61.302;2022-09-21T13:45:54;23.95;33.97
74376;HTU21D;62812;55.188;61.302;2022-09-21T13:48:23;23.87;33.79
74376;HTU21D;62812;55.188;61.302;2022-09-21T13:50:58;23.82;34.53
74376;HTU21D;62812;55.188;61.302;2022-09-21T13:53:34;23.76;33.92
74376;HTU21D;62812;55.188;61.302;2022-09-21T13:56:17;23.71;34.86
74376;HTU21D;62812;55.188;61.302;2022-09-21T13:58:51;23.64;34.86
74376;HTU21D;62812;55.188;61.302;2022-09-21T14:01:29;23.57;32.45
74376;HTU21D;62812;55.188;61.302;2022-09-21T14:03:58;23.47;34.28
74376;HTU21D;62812;55.188;61.302;2022-09-21T14:06:30;23.41;35.31
74376;HTU21D;62812;55.188;61.302;2022-09-21T14:09:03;23.35;35.44
74376;HTU21D;62812;55.188;61.302;2022-09-21T14:11:36;23.29;35.73
74376;HTU21D;62812;55.188;61.302;2022-09-21T14:14:23;23.25;35.61
74376;HTU21D;62812;55.188;61.302;2022-09-21T14:17:04;23.20;33.24
74376;HTU21D;62812;55.188;61.302;2022-09-21T14:25:51;22.96;33.76
74376;HTU21D;62812;55.188;61.302;2022-09-21T14:28:34;22.87;35.01
74376;HTU21D;62812;55.188;61.302;2022-09-21T14:31:07;22.82;35.73
74376;HTU21D;62812;55.188;61.302;2022-09-21T14:33:47;22.75;35.89
74376;HTU21D;62812;55.188;61.302;2022-09-21T14:36:21;22.68;36.88
74376;HTU21D;62812;55.188;61.302;2022-09-21T14:38:58;22.64;35.10
74376;HTU21D;62812;55.188;61.302;2022-09-21T14:41:31;22.58;37.28
74376;HTU21D;62812;55.188;61.302;2022-09-21T14:44:06;22.54;37.27
74376;HTU21D;62812;55.188;61.302;2022-09-21T14:50:33;22.37;35.03
74376;HTU21D;62812;55.188;61.302;2022-09-21T14:53:13;22.33;37.11
74376;HTU21D;62812;55.188;61.302;2022-09-21T14:56:01;22.25;36.85
74376;HTU21D;62812;55.188;61.302;2022-09-21T14:59:15;22.21;36.79
74376;HTU21D;62812;55.188;61.302;2022-09-21T15:01:55;22.14;38.04
74376;HTU21D;62812;55.188;61.302;2022-09-21T15:04:46;22.08;36.98
74376;HTU21D;62812;55.188;61.302;2022-09-21T15:07:28;22.02;37.72
74376;HTU21D;62812;55.188;61.302;2022-09-21T15:10:20;21.97;38.94
74376;HTU21D;62812;55.188;61.302;2022-09-21T15:13:17;21.93;38.90
74376;HTU21D;62812;55.188;61.302;2022-09-21T15:16:18;21.89;39.05
74376;HTU21D;62812;55.188;61.302;2022-09-21T15:19:11;21.82;36.28
74376;HTU21D;62812;55.188;61.302;2022-09-21T15:21:42;21.73;36.87
74376;HTU21D;62812;55.188;61.302;2022-09-21T15:24:17;21.67;40.52
74376;HTU21D;62812;55.188;61.302;2022-09-21T15:26:45;21.63;39.18
74376;HTU21D;62812;55.188;61.302;2022-09-21T15:29:23;21.60;38.41
74376;HTU21D;62812;55.188;61.302;2022-09-21T15:31:54;21.55;37.76
74376;HTU21D;62812;55.188;61.302;2022-09-21T15:34:30;21.53;39.58
74376;HTU21D;62812;55.188;61.302;2022-09-21T15:37:28;21.48;37.49
74376;HTU21D;62812;55.188;61.302;2022-09-21T15:40:02;21.37;37.88
74376;HTU21D;62812;55.188;61.302;2022-09-21T15:42:47;21.35;40.77
74376;HTU21D;62812;55.188;61.302;2022-09-21T15:45:45;21.30;37.90
74376;HTU21D;62812;55.188;61.302;2022-09-21T15:48:12;21.24;39.10
74376;HTU21D;62812;55.188;61.302;2022-09-21T15:50:44;21.18;38.26
74376;HTU21D;62812;55.188;61.302;2022-09-21T15:53:22;21.17;38.64
74376;HTU21D;62812;55.188;61.302;2022-09-21T15:56:02;21.15;38.53
74376;HTU21D;62812;55.188;61.302;2022-09-21T15:58:33;21.14;39.68
74376;HTU21D;62812;55.188;61.302;2022-09-21T16:04:05;21.09;40.25
74376;HTU21D;62812;55.188;61.302;2022-09-21T16:06:46;21.02;40.56